Time;durP1;ratioP1;P1;durP2;ratioP2;P2;SDS_P1;SDS_P2;PMS_P1;PMS_P2;Temp;Humidity;BMP_temperature;BMP_pressure;BME280_temperature;BME280_humidity;BME280_pressure;Samples;Min_cycle;Max_cycle;Signal;HPM_P1;HPM_P2
2021/06/06 00:00:47;;;;;;;;;;;;;;;15.37;75.55;102406.28;5135530;28;20059;-39
2021/06/06 00:03:20;;;;;;;14.10;9.65;;;;;;;15.25;76.16;102412.69;5134244;28;19923;-40
2021/06/06 00:05:56;;;;;;;13.07;10.52;;;;;;;15.19;76.79;102407.06;5134793;27;20179;-40
2021/06/06 00:08:23;;;;;;;12.60;10.57;;;;;;;15.19;77.11;102406.25;5134204;28;20039;-40
2021/06/06 00:10:50;;;;;;;12.85;10.77;;;;;;;15.20;76.63;102400.56;5134406;28;20463;-40
2021/06/06 00:13:17;;;;;;;13.55;11.43;;;;;;;15.00;77.05;102399.91;5134612;28;20043;-40
2021/06/06 00:15:44;;;;;;;14.63;10.75;;;;;;;15.13;76.96;102407.97;5134904;28;20031;-40
2021/06/06 00:18:10;;;;;;;13.85;11.00;;;;;;;15.08;77.24;102412.41;5133709;28;20023;-39
2021/06/06 00:20:37;;;;;;;17.10;11.43;;;;;;;15.14;76.85;102406.91;5134634;28;20027;-39
2021/06/06 00:23:04;;;;;;;13.68;11.32;;;;;;;15.00;77.09;102402.63;5133796;28;20406;-40
2021/06/06 00:25:29;;;;;;;14.38;11.70;;;;;;;15.05;77.16;102407.41;5134069;28;20015;-40
2021/06/06 00:27:55;;;;;;;14.70;11.07;;;;;;;15.12;76.70;102413.63;5134283;28;20034;-39
2021/06/06 00:30:20;;;;;;;12.30;11.00;;;;;;;15.08;76.97;102407.81;5134112;28;20729;-40
2021/06/06 00:32:46;;;;;;;13.82;11.40;;;;;;;15.05;77.00;102399.22;5133858;28;20031;-40
2021/06/06 00:35:12;;;;;;;14.13;11.70;;;;;;;15.01;77.41;102406.19;5134545;28;20035;-40
2021/06/06 00:37:37;;;;;;;;;;;;;;;15.17;76.48;102419.22;5134225;28;20023;-39
2021/06/06 00:40:05;;;;;;;13.30;10.13;;;;;;;15.03;77.37;102417.69;5133687;27;19994;-40
2021/06/06 00:42:31;;;;;;;14.68;10.90;;;;;;;15.06;77.09;102412.63;5133832;28;20030;-40
2021/06/06 00:44:56;;;;;;;;;;;;;;;15.16;76.45;102421.13;5134377;28;20102;-40
2021/06/06 00:47:23;;;;;;;11.45;10.15;;;;;;;15.04;77.22;102414.75;5134341;28;19943;-40
2021/06/06 00:49:48;;;;;;;13.80;11.43;;;;;;;15.01;77.61;102407.00;5134143;28;20031;-40
2021/06/06 00:52:17;;;;;;;13.85;11.63;;;;;;;15.04;77.38;102416.66;5133518;28;20027;-40
2021/06/06 00:54:46;;;;;;;13.52;9.95;;;;;;;14.99;77.74;102413.75;5134598;28;20076;-39
2021/06/06 00:57:30;;;;;;;13.50;11.50;;;;;;;14.95;77.46;102407.91;5133733;27;20027;-40
2021/06/06 01:00:22;;;;;;;13.27;10.90;;;;;;;15.05;77.20;102412.84;5134592;28;20030;-40
2021/06/06 01:02:49;;;;;;;17.17;11.38;;;;;;;14.82;77.64;102408.00;5133613;27;20082;-39
2021/06/06 01:05:43;;;;;;;14.07;10.93;;;;;;;14.93;77.91;102407.28;5133677;28;20031;-40
2021/06/06 01:08:13;;;;;;;16.30;11.07;;;;;;;14.89;77.89;102404.19;5133420;27;20027;-40
2021/06/06 01:10:38;;;;;;;17.23;11.73;;;;;;;14.88;77.78;102401.66;5136928;27;20106;-40
2021/06/06 01:13:16;;;;;;;15.07;11.73;;;;;;;14.78;78.09;102404.88;5137544;27;20054;-39
2021/06/06 01:15:46;;;;;;;12.75;11.25;;;;;;;14.85;77.92;102418.47;5137194;27;20027;-40
2021/06/06 01:18:20;;;;;;;14.80;11.25;;;;;;;14.83;77.87;102413.22;5137936;27;20043;-39
2021/06/06 01:21:10;;;;;;;12.98;11.55;;;;;;;14.85;77.73;102413.03;5136904;27;20066;-40
2021/06/06 01:24:02;;;;;;;13.52;10.27;;;;;;;14.84;78.21;102414.91;5134989;27;20490;-40
2021/06/06 01:26:40;;;;;;;14.20;10.88;;;;;;;14.82;78.48;102410.72;5121762;27;20023;-40
2021/06/06 01:29:18;;;;;;;15.68;11.27;;;;;;;14.73;78.49;102410.16;5116765;28;20027;-40
2021/06/06 01:31:48;;;;;;;14.65;11.27;;;;;;;14.68;78.70;102408.09;5115912;28;20030;-40
2021/06/06 01:34:17;;;;;;;15.05;11.77;;;;;;;14.61;79.24;102409.22;5117089;28;20023;-39
2021/06/06 01:36:47;;;;;;;13.30;11.77;;;;;;;14.66;78.62;102407.50;5116580;28;20076;-40
2021/06/06 01:39:26;;;;;;;14.70;12.07;;;;;;;14.63;79.04;102399.75;5116166;28;20465;-40
2021/06/06 01:42:00;;;;;;;15.35;11.07;;;;;;;14.67;78.60;102395.53;5116961;28;20119;-40
2021/06/06 01:44:29;;;;;;;14.07;12.38;;;;;;;14.67;78.77;102406.44;5114546;28;20038;-39
2021/06/06 01:47:10;;;;;;;17.15;12.00;;;;;;;14.63;79.00;102397.03;5116901;28;20023;-40
2021/06/06 01:49:43;;;;;;;15.60;12.38;;;;;;;14.60;78.73;102411.09;5115695;27;20038;-40
2021/06/06 01:52:11;;;;;;;15.80;12.57;;;;;;;14.61;79.24;102404.59;5116288;28;20027;-40
2021/06/06 01:54:37;;;;;;;16.48;13.10;;;;;;;14.51;79.46;102406.13;5115871;27;20051;-39
2021/06/06 01:57:08;;;;;;;18.00;13.88;;;;;;;14.50;79.81;102399.88;5115754;28;20019;-40
2021/06/06 01:59:38;;;;;;;15.55;12.73;;;;;;;14.45;80.17;102401.56;5115675;28;20051;-40
2021/06/06 02:02:04;;;;;;;17.42;13.30;;;;;;;14.51;79.90;102406.97;5116545;28;20028;-40
2021/06/06 02:04:31;;;;;;;14.93;13.15;;;;;;;14.49;79.96;102409.06;5115921;28;20031;-40
2021/06/06 02:07:04;;;;;;;17.27;13.13;;;;;;;14.49;80.25;102398.19;5115967;28;20074;-40
2021/06/06 02:09:34;;;;;;;17.63;13.73;;;;;;;14.54;80.20;102406.53;5115841;28;20440;-39
2021/06/06 02:12:02;;;;;;;15.18;13.35;;;;;;;14.55;79.93;102410.94;5116084;28;20413;-39
2021/06/06 02:14:34;;;;;;;16.15;13.40;;;;;;;14.54;80.34;102401.09;5115422;28;20110;-40
2021/06/06 02:17:03;;;;;;;16.92;13.48;;;;;;;14.52;79.89;102405.91;5115725;28;20477;-39
2021/06/06 02:19:31;;;;;;;16.80;14.15;;;;;;;14.52;79.65;102388.75;5115159;28;20024;-40
2021/06/06 02:22:02;;;;;;;16.58;13.10;;;;;;;14.54;80.11;102400.25;5114317;28;20073;-41
2021/06/06 02:24:28;;;;;;;19.33;13.68;;;;;;;14.49;79.71;102406.34;5115273;28;20044;-40
2021/06/06 02:27:08;;;;;;;15.90;13.07;;;;;;;14.48;79.81;102409.28;5115263;28;20036;-40
2021/06/06 02:29:42;;;;;;;17.65;13.30;;;;;;;14.34;79.75;102405.78;5115616;28;20376;-40
2021/06/06 02:32:32;;;;;;;16.30;13.07;;;;;;;14.42;78.87;102409.09;5115174;28;20027;-40
2021/06/06 02:35:08;;;;;;;14.82;12.10;;;;;;;14.38;78.36;102412.47;5114813;28;20468;-40
2021/06/06 02:37:50;;;;;;;16.83;11.98;;;;;;;14.38;78.09;102407.84;5114662;28;20484;-40
2021/06/06 02:40:40;;;;;;;14.60;12.13;;;;;;;14.36;78.10;102404.53;5115511;28;20054;-40
2021/06/06 02:43:23;;;;;;;14.27;12.13;;;;;;;14.37;77.50;102402.63;5113671;28;20024;-40
2021/06/06 02:45:51;;;;;;;15.43;12.57;;;;;;;14.18;78.11;102402.50;5115678;28;20367;-39
2021/06/06 02:48:40;;;;;;;15.98;11.43;;;;;;;14.28;77.49;102403.94;5114812;28;20024;-40
2021/06/06 02:51:08;;;;;;;15.07;10.88;;;;;;;14.31;77.61;102403.50;5115079;28;20042;-40
2021/06/06 02:53:38;;;;;;;16.17;11.82;;;;;;;14.34;77.20;102394.88;5114395;28;20575;-40
2021/06/06 02:56:11;;;;;;;16.30;12.20;;;;;;;14.33;77.55;102398.66;5114643;28;20076;-40
2021/06/06 02:59:00;;;;;;;14.13;12.63;;;;;;;14.32;77.54;102403.28;5114703;28;20027;-40
2021/06/06 03:01:33;;;;;;;14.35;12.32;;;;;;;14.30;77.69;102397.25;5114613;28;20027;-40
2021/06/06 03:04:02;;;;;;;15.10;12.25;;;;;;;14.30;77.28;102399.09;5114578;28;20057;-40
2021/06/06 03:06:35;;;;;;;15.32;13.25;;;;;;;14.25;77.45;102402.50;5114564;28;20027;-39
2021/06/06 03:09:00;;;;;;;16.08;13.70;;;;;;;14.20;78.08;102404.19;5114819;28;20023;-39
2021/06/06 03:11:27;;;;;;;16.50;13.27;;;;;;;14.20;78.09;102404.19;5114434;28;20546;-39
2021/06/06 03:13:59;;;;;;;14.15;12.60;;;;;;;14.23;77.76;102401.03;5114118;28;20055;-40
2021/06/06 03:16:27;;;;;;;17.70;13.73;;;;;;;14.23;78.04;102404.59;5114240;28;20027;-40
2021/06/06 03:18:55;;;;;;;14.38;12.88;;;;;;;14.20;78.14;102404.19;5114889;28;20527;-40
2021/06/06 03:21:39;;;;;;;19.13;14.18;;;;;;;14.21;77.82;102405.88;5114450;28;20047;-39
2021/06/06 03:24:09;;;;;;;15.95;14.25;;;;;;;14.17;78.19;102400.84;5114970;28;20031;-40
2021/06/06 03:26:36;;;;;;;16.80;13.93;;;;;;;14.21;77.81;102405.88;5114440;28;20394;-40
2021/06/06 03:29:08;;;;;;;15.98;14.27;;;;;;;14.22;77.88;102410.25;5114110;28;20050;-40
2021/06/06 03:31:38;;;;;;;17.73;14.35;;;;;;;14.21;78.06;102400.44;5113936;28;20030;-39
2021/06/06 03:34:05;;;;;;;15.90;14.20;;;;;;;14.15;78.35;102407.53;5114054;28;20031;-39
2021/06/06 03:36:37;;;;;;;16.38;14.05;;;;;;;14.17;78.30;102406.28;5114513;28;20464;-40
2021/06/06 03:39:08;;;;;;;17.17;13.98;;;;;;;14.13;78.31;102404.22;5113936;28;20031;-39
2021/06/06 03:41:33;;;;;;;18.73;15.60;;;;;;;14.08;78.87;102412.19;5114708;28;20360;-39
2021/06/06 03:43:59;;;;;;;16.73;14.48;;;;;;;14.07;78.57;102402.38;5113915;28;20030;-40
2021/06/06 03:46:26;;;;;;;17.25;14.15;;;;;;;13.98;79.05;102407.22;5114430;28;20068;-40
2021/06/06 03:48:52;;;;;;;16.80;14.43;;;;;;;14.00;79.03;102401.56;5114395;28;20027;-40
2021/06/06 03:51:18;;;;;;;17.67;14.77;;;;;;;14.05;78.87;102405.28;5114124;28;20154;-40
2021/06/06 03:53:44;;;;;;;19.25;14.88;;;;;;;14.03;78.89;102404.69;5113811;28;20048;-40
2021/06/06 03:56:11;;;;;;;17.88;14.73;;;;;;;13.98;79.60;102406.38;5114394;28;20592;-40
2021/06/06 03:58:37;;;;;;;17.45;14.65;;;;;;;13.95;79.40;102406.81;5113333;28;20032;-40
2021/06/06 04:01:04;;;;;;;16.85;14.60;;;;;;;13.98;79.61;102400.94;5114273;28;20036;-39
2021/06/06 04:03:29;;;;;;;20.27;14.52;;;;;;;13.95;79.67;102402.19;5113497;28;20314;-40
2021/06/06 04:05:55;;;;;;;19.48;14.45;;;;;;;13.99;79.36;102408.88;5113481;28;20038;-40
2021/06/06 04:08:21;;;;;;;19.25;15.68;;;;;;;14.00;79.22;102398.84;5113665;28;20027;-40
2021/06/06 04:10:47;;;;;;;17.90;15.82;;;;;;;13.95;79.43;102401.38;5113902;28;20027;-40
2021/06/06 04:13:13;;;;;;;20.35;15.48;;;;;;;13.94;79.64;102405.97;5113609;28;20023;-40
2021/06/06 04:15:39;;;;;;;21.70;16.02;;;;;;;13.86;79.88;102417.13;5114463;28;20341;-39
2021/06/06 04:18:15;;;;;;;19.52;16.05;;;;;;;13.91;79.60;102417.31;5113172;28;20024;-40
2021/06/06 04:20:42;;;;;;;17.13;15.32;;;;;;;13.97;79.40;102408.28;5114128;28;20023;-40
2021/06/06 04:23:08;;;;;;;20.52;15.00;;;;;;;13.99;79.46;102421.66;5114084;28;20345;-40
2021/06/06 04:25:33;;;;;;;20.33;17.00;;;;;;;13.99;79.36;102417.03;5114310;28;20036;-40
2021/06/06 04:27:59;;;;;;;20.48;15.98;;;;;;;13.96;79.38;102416.63;5113133;28;20046;-40
2021/06/06 04:30:25;;;;;;;19.77;17.05;;;;;;;13.95;79.63;102417.69;5113170;28;20020;-40
2021/06/06 04:32:51;;;;;;;20.45;16.88;;;;;;;13.94;79.24;102416.03;5113453;28;20031;-40
2021/06/06 04:35:16;;;;;;;23.20;17.92;;;;;;;13.88;79.63;102404.97;5112794;28;20035;-39
2021/06/06 04:37:42;;;;;;;21.95;17.67;;;;;;;13.89;79.89;102412.06;5112787;28;20112;-40
2021/06/06 04:40:10;;;;;;;20.52;16.73;;;;;;;13.90;79.58;102404.72;5113049;28;20020;-40
2021/06/06 04:42:36;;;;;;;22.27;17.65;;;;;;;13.87;79.90;102410.63;5113219;28;20038;-40
2021/06/06 04:45:03;;;;;;;21.55;16.90;;;;;;;13.88;79.87;102406.84;5115978;28;20027;-40
2021/06/06 04:47:28;;;;;;;22.33;17.10;;;;;;;13.92;80.08;102413.53;5117067;28;20034;-40
2021/06/06 04:49:53;;;;;;;21.43;17.67;;;;;;;13.90;80.30;102416.44;5117434;28;20028;-40
2021/06/06 04:52:19;;;;;;;22.17;18.33;;;;;;;13.74;80.63;102416.09;5117070;28;20512;-40
2021/06/06 04:54:44;;;;;;;23.33;17.23;;;;;;;13.84;80.39;102411.03;5116822;28;20030;-40
2021/06/06 04:57:10;;;;;;;21.10;16.70;;;;;;;13.85;80.14;102418.13;5117821;28;20065;-40
2021/06/06 04:59:36;;;;;;;23.20;17.47;;;;;;;13.84;80.23;102413.75;5116947;28;20063;-40
2021/06/06 05:02:09;;;;;;;25.27;17.27;;;;;;;13.74;80.77;102418.81;5116582;28;20261;-39
2021/06/06 05:04:35;;;;;;;23.02;17.95;;;;;;;13.77;81.08;102421.94;5117668;28;20089;-39
2021/06/06 05:07:01;;;;;;;22.42;17.45;;;;;;;13.83;80.49;102431.13;5116534;28;20471;-39
2021/06/06 05:09:26;;;;;;;25.27;17.63;;;;;;;13.72;80.41;102419.03;5116805;28;20459;-40
2021/06/06 05:11:52;;;;;;;24.77;17.63;;;;;;;13.78;80.71;102422.78;5116747;28;20024;-40
2021/06/06 05:14:18;;;;;;;23.00;17.90;;;;;;;13.74;80.75;102430.50;5116490;28;20047;-40
2021/06/06 05:16:43;;;;;;;;;;;;;;;13.86;79.92;102436.16;5117127;28;20065;-40
2021/06/06 05:19:09;;;;;;;21.77;16.50;;;;;;;13.81;80.54;102430.50;5116233;28;20384;-40
2021/06/06 05:21:34;;;;;;;24.45;17.67;;;;;;;13.81;80.61;102422.31;5116163;28;20124;-40
2021/06/06 05:24:00;;;;;;;21.55;16.48;;;;;;;13.85;80.21;102423.56;5116631;28;20023;-40
2021/06/06 05:26:26;;;;;;;20.65;16.15;;;;;;;13.84;80.58;102430.06;5116790;28;20023;-40
2021/06/06 05:28:52;;;;;;;20.13;16.08;;;;;;;13.88;80.04;102424.00;5117197;28;20039;-40
2021/06/06 05:31:20;;;;;;;20.95;16.48;;;;;;;13.91;80.63;102430.91;5116943;28;20028;-40
2021/06/06 05:33:45;;;;;;;20.48;15.25;;;;;;;13.99;79.92;102430.63;5116022;28;20027;-40
2021/06/06 05:36:11;;;;;;;19.77;15.20;;;;;;;14.01;79.90;102427.72;5116307;28;20036;-40
2021/06/06 05:38:37;;;;;;;18.08;15.25;;;;;;;14.04;79.51;102430.81;5116388;28;20051;-40
2021/06/06 05:41:04;;;;;;;19.17;15.10;;;;;;;14.08;79.34;102429.34;5116980;28;20024;-40
2021/06/06 05:43:29;;;;;;;19.35;14.68;;;;;;;14.12;79.52;102433.31;5116118;28;20028;-40
2021/06/06 05:45:55;;;;;;;16.42;14.73;;;;;;;14.09;79.47;102431.00;5116052;28;20464;-40
2021/06/06 05:48:21;;;;;;;16.58;14.38;;;;;;;14.09;78.89;102425.56;5115763;28;20039;-40
2021/06/06 05:50:49;;;;;;;16.75;14.77;;;;;;;14.06;79.33;102425.19;5115991;28;20031;-40
2021/06/06 05:53:15;;;;;;;16.42;13.77;;;;;;;14.11;79.38;102428.94;5115606;28;20024;-39
2021/06/06 05:55:43;;;;;;;16.92;14.00;;;;;;;14.14;78.94;102431.19;5114637;28;20024;-40
2021/06/06 05:58:08;;;;;;;16.90;13.23;;;;;;;14.15;78.55;102423.88;5116335;28;20532;-39
2021/06/06 06:00:36;;;;;;;15.70;13.52;;;;;;;14.09;78.71;102416.56;5116169;28;20122;-40
2021/06/06 06:03:03;;;;;;;19.88;14.40;;;;;;;14.15;78.84;102432.91;5115723;28;20023;-40
2021/06/06 06:05:29;;;;;;;14.60;13.02;;;;;;;14.17;78.47;102430.78;5115723;28;20110;-39
2021/06/06 06:07:54;;;;;;;17.73;14.30;;;;;;;14.17;78.27;102425.34;5115392;28;20071;-39
2021/06/06 06:10:28;;;;;;;15.63;13.77;;;;;;;14.16;78.17;102415.50;5115886;28;20024;-40
2021/06/06 06:12:55;;;;;;;16.40;14.00;;;;;;;14.19;78.17;102419.66;5115552;28;20043;-39
2021/06/06 06:15:20;;;;;;;17.33;13.90;;;;;;;14.20;77.81;102415.91;5115547;28;20099;-40
2021/06/06 06:17:46;;;;;;;17.58;12.55;;;;;;;14.24;77.85;102427.19;5115199;28;20059;-40
2021/06/06 06:20:17;;;;;;;17.13;13.65;;;;;;;14.23;78.17;102420.06;5115805;28;20535;-39
2021/06/06 06:22:43;;;;;;;16.15;13.77;;;;;;;14.16;77.93;102431.84;5115488;28;20043;-40
2021/06/06 06:25:11;;;;;;;;;;;;;;;14.30;77.56;102434.47;5115871;28;20379;-39
2021/06/06 06:27:36;;;;;;;15.20;13.18;;;;;;;14.15;78.05;102435.63;5115012;28;19912;-39
2021/06/06 06:30:08;;;;;;;13.37;11.60;;;;;;;14.20;77.61;102431.38;5115607;28;20460;-39
2021/06/06 06:32:33;;;;;;;16.17;13.88;;;;;;;14.20;77.71;102436.81;5115124;28;20023;-39
2021/06/06 06:34:59;;;;;;;13.27;11.87;;;;;;;14.28;77.36;102431.16;5115525;28;20039;-39
2021/06/06 06:37:25;;;;;;;14.38;11.15;;;;;;;14.35;77.72;102432.78;5115142;28;20305;-39
2021/06/06 06:39:51;;;;;;;15.82;13.23;;;;;;;14.37;77.49;102435.28;5115875;28;20403;-39
2021/06/06 06:42:16;;;;;;;15.85;11.90;;;;;;;14.38;77.71;102431.50;5115029;28;20040;-39
2021/06/06 06:44:42;;;;;;;12.57;11.30;;;;;;;14.43;77.42;102432.53;5115377;28;20034;-39
2021/06/06 06:47:07;;;;;;;14.63;10.80;;;;;;;14.47;77.17;102422.03;5114673;28;20028;-39
2021/06/06 06:49:32;;;;;;;12.40;10.73;;;;;;;14.48;77.19;102428.34;5114571;28;20264;-39
2021/06/06 06:51:57;;;;;;;12.23;10.87;;;;;;;14.57;76.79;102427.03;5115123;28;20024;-39
2021/06/06 06:54:23;;;;;;;12.07;10.77;;;;;;;14.51;76.75;102420.59;5115052;28;20304;-39
2021/06/06 06:56:48;;;;;;;13.20;11.43;;;;;;;14.61;76.94;102429.09;5115552;27;20143;-39
2021/06/06 06:59:14;;;;;;;13.68;11.55;;;;;;;14.55;76.67;102431.88;5114647;28;20266;-39
2021/06/06 07:01:39;;;;;;;11.77;10.57;;;;;;;14.61;76.33;102436.44;5115151;28;20194;-39
2021/06/06 07:04:05;;;;;;;12.40;11.00;;;;;;;14.59;76.75;102438.53;5114297;28;20547;-39
2021/06/06 07:06:31;;;;;;;14.23;11.77;;;;;;;14.68;77.01;102448.94;5114133;28;20272;-39
2021/06/06 07:08:56;;;;;;;11.38;10.27;;;;;;;14.73;76.80;102447.44;5114881;28;20660;-39
2021/06/06 07:11:22;;;;;;;11.98;10.77;;;;;;;14.78;76.54;102450.34;5114118;28;20024;-38
2021/06/06 07:13:48;;;;;;;14.65;11.07;;;;;;;14.73;76.71;102448.28;5114597;28;20030;-39
2021/06/06 07:16:15;;;;;;;13.02;10.82;;;;;;;14.78;75.96;102444.91;5114897;28;20042;-39
2021/06/06 07:18:41;;;;;;;12.65;11.32;;;;;;;14.85;75.79;102451.16;5114260;28;20031;-39
2021/06/06 07:21:13;;;;;;;13.38;11.98;;;;;;;14.89;75.84;102447.75;5114308;28;20031;-39
2021/06/06 07:23:42;;;;;;;13.27;11.88;;;;;;;14.86;75.49;102447.38;5114746;28;20376;-40
2021/06/06 07:26:14;;;;;;;14.13;11.52;;;;;;;14.87;75.33;102446.31;5114494;28;20419;-40
2021/06/06 07:28:40;;;;;;;12.38;11.13;;;;;;;14.90;75.02;102449.44;5113904;28;20081;-39
2021/06/06 07:31:07;;;;;;;12.63;11.32;;;;;;;14.97;75.22;102446.66;5114154;28;20089;-40
2021/06/06 07:33:39;;;;;;;13.25;11.82;;;;;;;15.01;75.04;102447.88;5114121;28;20063;-39
2021/06/06 07:36:05;;;;;;;12.32;11.02;;;;;;;15.06;74.88;102439.88;5113114;28;20444;-39
2021/06/06 07:38:31;;;;;;;12.80;11.50;;;;;;;15.08;74.11;102448.66;5113586;28;20447;-39
2021/06/06 07:40:58;;;;;;;15.75;13.18;;;;;;;15.09;74.02;102450.34;5114044;28;20024;-39
2021/06/06 07:43:23;;;;;;;13.45;11.85;;;;;;;15.19;74.56;102444.38;5113872;28;20345;-39
2021/06/06 07:45:49;;;;;;;12.50;11.20;;;;;;;15.20;73.68;102444.16;5114124;28;20039;-39
2021/06/06 07:48:14;;;;;;;12.68;10.77;;;;;;;15.31;73.81;102444.47;5114174;28;20028;-40
2021/06/06 07:50:43;;;;;;;12.50;11.17;;;;;;;15.35;74.01;102452.00;5114186;28;20427;-39
2021/06/06 07:53:10;;;;;;;12.35;11.00;;;;;;;15.45;73.55;102448.75;5113585;28;20266;-39
2021/06/06 07:55:35;;;;;;;11.18;9.98;;;;;;;15.54;73.17;102458.31;5113662;28;20114;-39
2021/06/06 07:58:02;;;;;;;12.93;10.20;;;;;;;15.63;72.86;102450.69;5113719;28;20110;-40
2021/06/06 08:00:31;;;;;;;12.07;9.68;;;;;;;15.67;72.89;102446.47;5114272;28;20072;-39
2021/06/06 08:02:56;;;;;;;12.55;10.02;;;;;;;15.82;72.37;102443.38;5113666;28;20031;-40
2021/06/06 08:05:22;;;;;;;11.77;10.07;;;;;;;15.85;71.68;102446.47;5114119;28;20063;-39
2021/06/06 08:07:48;;;;;;;10.32;9.30;;;;;;;15.91;71.39;102453.75;5113745;28;20020;-39
2021/06/06 08:10:16;;;;;;;10.77;9.63;;;;;;;16.01;71.43;102450.50;5113696;28;20030;-40
2021/06/06 08:12:42;;;;;;;11.65;9.57;;;;;;;16.00;71.30;102451.53;5113658;28;20051;-40
2021/06/06 08:15:09;;;;;;;11.32;9.32;;;;;;;16.15;70.85;102462.06;5113979;28;20086;-40
2021/06/06 08:17:35;;;;;;;13.55;9.93;;;;;;;16.16;70.25;102456.41;5113635;28;20081;-39
2021/06/06 08:20:00;;;;;;;11.55;9.35;;;;;;;16.23;70.43;102454.41;5116564;28;20452;-40
2021/06/06 08:22:26;;;;;;;11.40;10.07;;;;;;;16.22;70.14;102458.19;5117801;28;20104;-40
2021/06/06 08:24:51;;;;;;;11.73;9.68;;;;;;;16.30;69.93;102456.19;5118346;28;20039;-39
2021/06/06 08:27:17;;;;;;;10.10;8.77;;;;;;;16.39;68.93;102452.09;5117932;28;20024;-39
2021/06/06 08:29:42;;;;;;;;;;;;;;;16.56;70.34;102458.59;5118726;28;20034;-39
2021/06/06 08:32:08;;;;;;;9.82;8.02;;;;;;;16.61;69.16;102457.88;5117626;28;19956;-40
2021/06/06 08:34:34;;;;;;;11.20;8.57;;;;;;;16.70;68.46;102461.97;5117485;28;20438;-40
2021/06/06 08:37:01;;;;;;;10.20;8.82;;;;;;;16.79;67.70;102457.00;5116200;28;20035;-40
2021/06/06 08:39:30;;;;;;;9.50;8.50;;;;;;;16.85;67.51;102445.16;5117662;28;20083;-40
2021/06/06 08:42:17;;;;;;;10.48;8.73;;;;;;;16.86;68.09;102452.28;5118183;28;20027;-39
2021/06/06 08:45:08;;;;;;;9.65;8.02;;;;;;;17.09;68.42;102448.78;5117324;28;20031;-40
2021/06/06 08:47:36;;;;;;;8.98;8.07;;;;;;;17.30;67.58;102452.84;5113729;28;20039;-40
2021/06/06 08:50:20;;;;;;;9.10;8.18;;;;;;;17.35;67.57;102439.28;5117722;28;20088;-40
2021/06/06 08:52:52;;;;;;;9.50;8.50;;;;;;;17.48;67.19;102445.34;5117979;28;20024;-40
2021/06/06 08:55:54;;;;;;;8.18;7.38;;;;;;;17.77;67.58;102448.22;5117475;28;20116;-39
2021/06/06 08:58:40;;;;;;;9.10;7.28;;;;;;;17.85;66.44;102453.28;5117245;28;20054;-40
2021/06/06 09:01:08;;;;;;;8.00;7.20;;;;;;;17.89;66.17;102449.00;5117529;28;20031;-40
2021/06/06 09:03:34;;;;;;;7.68;6.70;;;;;;;17.88;65.29;102455.56;5117122;28;20028;-40
2021/06/06 09:06:12;;;;;;;9.57;7.07;;;;;;;17.93;66.20;102441.97;5117145;28;20384;-40
2021/06/06 09:08:39;;;;;;;8.02;6.97;;;;;;;17.93;64.96;102447.47;5117542;28;20043;-40
2021/06/06 09:11:12;;;;;;;7.35;6.40;;;;;;;18.06;65.15;102448.28;5116796;28;20020;-40
2021/06/06 09:13:38;;;;;;;8.15;7.00;;;;;;;18.25;64.77;102452.47;5116759;28;20106;-40
2021/06/06 09:16:26;;;;;;;6.75;6.03;;;;;;;18.43;65.46;102455.03;5117513;28;20031;-40
2021/06/06 09:19:18;;;;;;;8.48;7.28;;;;;;;18.74;64.07;102452.91;5116897;28;20365;-39
2021/06/06 09:22:14;;;;;;;6.93;6.20;;;;;;;18.86;65.07;102455.56;5115260;28;20070;-40
2021/06/06 09:24:47;;;;;;;9.10;6.85;;;;;;;18.85;63.10;102464.88;5093939;28;20044;-40
2021/06/06 09:27:21;;;;;;;7.28;5.95;;;;;;;18.89;62.46;102455.91;5093910;28;20036;-40
2021/06/06 09:30:04;;;;;;;9.00;6.32;;;;;;;18.96;63.10;102450.25;5093792;28;20147;-39
2021/06/06 09:32:30;;;;;;;7.28;6.57;;;;;;;19.16;63.73;102456.06;5094254;28;20035;-40
2021/06/06 09:35:16;;;;;;;;;;;;;;;19.30;63.61;102454.66;5094238;28;20468;-40
2021/06/06 09:37:50;;;;;;;7.38;6.10;;;;;;;19.18;62.42;102453.06;5092892;28;19938;-40
2021/06/06 09:40:36;;;;;;;6.95;6.07;;;;;;;19.44;62.88;102457.06;5094042;28;20051;-40
2021/06/06 09:43:02;;;;;;;6.47;5.70;;;;;;;19.54;61.41;102446.25;5093748;28;20503;-40
2021/06/06 09:45:32;;;;;;;8.88;6.50;;;;;;;19.70;61.91;102455.53;5093387;28;20480;-40
2021/06/06 09:48:08;;;;;;;7.03;6.32;;;;;;;19.60;60.96;102456.22;5093406;28;20044;-40
2021/06/06 09:50:44;;;;;;;7.30;6.30;;;;;;;19.71;60.87;102455.28;5093627;28;20450;-40
2021/06/06 09:53:25;;;;;;;6.80;6.00;;;;;;;19.74;60.90;102452.03;5093822;28;20425;-40
2021/06/06 09:55:51;;;;;;;6.80;6.18;;;;;;;19.62;61.68;102447.72;5093749;28;20085;-40
2021/06/06 09:58:32;;;;;;;6.25;5.65;;;;;;;19.60;61.29;102448.00;5093045;28;20399;-40
2021/06/06 10:01:05;;;;;;;6.25;5.53;;;;;;;19.71;60.68;102444.31;5104340;28;20104;-40
2021/06/06 10:03:33;;;;;;;6.10;5.43;;;;;;;19.92;60.14;102450.09;5116388;28;20080;-40
2021/06/06 10:06:12;;;;;;;6.28;5.68;;;;;;;19.91;60.22;102453.91;5116069;28;20031;-40
2021/06/06 10:08:38;;;;;;;7.10;5.60;;;;;;;19.69;61.50;102454.72;5115756;28;20038;-40
2021/06/06 10:11:11;;;;;;;;;;;;;;;19.89;61.15;102456.06;5115749;28;20027;-40
2021/06/06 10:13:40;;;;;;;5.55;5.05;;;;;;;19.65;60.71;102453.56;5115570;28;19907;-40
2021/06/06 10:16:11;;;;;;;5.85;5.35;;;;;;;19.54;61.09;102452.56;5115337;28;20039;-40
2021/06/06 10:18:53;;;;;;;6.38;5.18;;;;;;;19.60;61.89;102445.25;5116000;28;20027;-40
2021/06/06 10:21:24;;;;;;;6.40;5.75;;;;;;;19.57;61.68;102453.97;5114368;28;20074;-40
2021/06/06 10:23:56;;;;;;;7.53;6.30;;;;;;;19.55;61.76;102450.63;5115918;28;20049;-40
2021/06/06 10:26:47;;;;;;;7.25;6.55;;;;;;;19.93;62.31;102454.50;5115330;28;20107;-40
2021/06/06 10:29:27;;;;;;;7.93;6.95;;;;;;;19.85;60.35;102452.19;5115782;28;20042;-40
2021/06/06 10:31:56;;;;;;;8.45;6.93;;;;;;;19.95;59.89;102457.78;5115314;28;20111;-40
2021/06/06 10:34:42;;;;;;;7.82;6.88;;;;;;;19.91;60.87;102456.63;5113720;28;20391;-40
2021/06/06 10:37:08;;;;;;;8.50;7.57;;;;;;;19.68;59.82;102458.56;5115554;28;20388;-40
2021/06/06 10:39:38;;;;;;;8.25;7.45;;;;;;;19.50;59.93;102456.06;5115027;28;20034;-40
2021/06/06 10:42:09;;;;;;;8.77;7.65;;;;;;;19.62;60.85;102451.34;5114613;28;20114;-40
2021/06/06 10:44:38;;;;;;;7.95;7.00;;;;;;;20.14;60.24;102458.31;5115224;27;20034;-40
2021/06/06 10:47:28;;;;;;;9.40;8.43;;;;;;;20.35;59.96;102449.25;5113527;28;20030;-40
2021/06/06 10:49:57;;;;;;;9.13;8.05;;;;;;;20.31;57.71;102454.41;5115139;28;20044;-40
2021/06/06 10:52:32;;;;;;;8.93;7.68;;;;;;;20.40;58.84;102454.78;5114739;28;20030;-40
2021/06/06 10:55:19;;;;;;;8.75;7.85;;;;;;;20.53;57.26;102453.56;5114728;28;20070;-40
2021/06/06 10:57:45;;;;;;;7.45;6.70;;;;;;;20.87;57.73;102440.41;5114838;28;20028;-40
2021/06/06 11:00:12;;;;;;;;;;;;;;;21.31;58.03;102443.00;5115211;28;20084;-40
2021/06/06 11:02:52;;;;;;;6.97;6.28;;;;;;;20.92;54.65;102439.63;5115207;28;19908;-40
2021/06/06 11:05:44;;;;;;;7.47;6.72;;;;;;;20.77;57.03;102449.41;5115454;28;20043;-40
2021/06/06 11:08:28;;;;;;;8.77;7.88;;;;;;;21.15;57.18;102435.72;5114728;28;20516;-40
2021/06/06 11:11:26;;;;;;;9.20;7.35;;;;;;;21.63;56.89;102442.09;5115049;28;20035;-40
2021/06/06 11:13:53;;;;;;;7.85;7.15;;;;;;;21.50;55.12;102424.97;5092229;28;20452;-40
2021/06/06 11:16:36;;;;;;;7.95;6.63;;;;;;;21.41;54.69;102436.72;5091894;28;20036;-40
2021/06/06 11:19:13;;;;;;;6.78;6.07;;;;;;;21.11;55.29;102435.41;5092016;28;20490;-40
2021/06/06 11:21:55;;;;;;;8.23;7.40;;;;;;;20.73;55.13;102429.03;5091874;28;20681;-40
2021/06/06 11:24:29;;;;;;;7.38;6.68;;;;;;;20.53;56.74;102428.81;5091574;28;20043;-40
2021/06/06 11:27:10;;;;;;;7.90;6.93;;;;;;;20.40;55.96;102437.44;5091850;28;20044;-40
2021/06/06 11:29:44;;;;;;;9.05;7.25;;;;;;;20.37;56.86;102435.22;5091539;28;20060;-40
2021/06/06 11:32:12;;;;;;;7.03;6.20;;;;;;;20.26;56.73;102431.56;5092173;28;20036;-40